createdAt,value
2018-12-18T00:00:40.953Z,28.23
2018-12-18T00:03:08.611Z,27.10
2018-12-18T00:05:36.279Z,27.43
2018-12-18T00:08:03.934Z,30.07
2018-12-18T00:10:37.187Z,32.23
2018-12-18T00:13:04.895Z,29.33
2018-12-18T00:15:32.555Z,26.20
2018-12-18T00:18:00.134Z,28.10
2018-12-18T00:20:27.788Z,27.40
2018-12-18T00:22:55.438Z,27.53
2018-12-18T00:25:23.112Z,28.80
2018-12-18T00:27:50.763Z,29.40
2018-12-18T00:30:18.441Z,28.67
2018-12-18T00:32:46.090Z,27.37
2018-12-18T00:35:13.852Z,28.70
2018-12-18T00:37:41.434Z,28.13
2018-12-18T00:40:09.096Z,29.50
2018-12-18T00:42:36.688Z,27.20
2018-12-18T00:45:05.327Z,28.20
2018-12-18T00:47:32.907Z,27.40
2018-12-18T00:50:00.555Z,29.03
2018-12-18T00:52:28.144Z,29.17
2018-12-18T00:54:55.779Z,29.33
2018-12-18T00:57:23.439Z,29.20
2018-12-18T00:59:51.154Z,29.07
2018-12-18T01:02:18.871Z,29.07
2018-12-18T01:04:46.553Z,28.37
2018-12-18T01:07:14.194Z,31.30
2018-12-18T01:09:41.865Z,28.10
2018-12-18T01:12:09.559Z,28.10
2018-12-18T01:14:37.259Z,30.67
2018-12-18T01:17:04.946Z,29.07
2018-12-18T01:19:32.618Z,28.93
2018-12-18T01:22:00.384Z,26.47
2018-12-18T01:24:28.024Z,26.80
2018-12-18T01:26:55.708Z,27.67
2018-12-18T01:29:23.377Z,28.57
2018-12-18T01:31:51.122Z,29.10
2018-12-18T01:34:18.791Z,27.13
2018-12-18T01:36:46.469Z,27.97
2018-12-18T01:39:14.119Z,28.83
2018-12-18T01:41:41.782Z,28.83
2018-12-18T01:44:09.442Z,26.90
2018-12-18T01:46:37.113Z,29.20
2018-12-18T01:49:04.776Z,25.80
2018-12-18T01:51:32.445Z,25.63
2018-12-18T01:54:00.096Z,24.07
2018-12-18T01:56:27.763Z,24.80
2018-12-18T01:58:55.352Z,23.93
2018-12-18T02:01:22.994Z,26.00
2018-12-18T02:03:50.579Z,28.17
2018-12-18T02:06:18.319Z,25.67
2018-12-18T02:08:45.976Z,27.03
2018-12-18T02:11:13.731Z,27.87
2018-12-18T02:13:41.400Z,26.40
2018-12-18T02:16:09.838Z,25.83
2018-12-18T02:18:37.900Z,29.13
2018-12-18T02:21:05.519Z,28.60
2018-12-18T02:23:33.184Z,25.97
2018-12-18T02:26:00.849Z,24.33
2018-12-18T02:28:37.316Z,25.80
2018-12-18T02:31:04.972Z,27.97
2018-12-18T02:33:33.257Z,26.40
2018-12-18T02:36:00.920Z,26.77
2018-12-18T02:38:28.575Z,28.77
2018-12-18T02:40:56.245Z,27.37
2018-12-18T02:43:23.855Z,28.50
2018-12-18T02:45:51.443Z,28.90
2018-12-18T02:48:19.293Z,28.10
2018-12-18T02:50:47.002Z,29.60
2018-12-18T02:53:14.660Z,28.53
2018-12-18T02:55:42.322Z,28.23
2018-12-18T02:58:09.936Z,33.07
2018-12-18T03:00:37.550Z,31.40
2018-12-18T03:03:05.204Z,32.03
2018-12-18T03:05:32.982Z,32.03
2018-12-18T03:08:00.737Z,30.30
2018-12-18T03:10:28.604Z,32.90
2018-12-18T03:12:56.585Z,32.53
2018-12-18T03:15:24.226Z,31.27
2018-12-18T03:17:51.904Z,31.60
2018-12-18T03:20:19.568Z,31.70
2018-12-18T03:22:47.232Z,32.17
2018-12-18T03:25:14.888Z,31.70
2018-12-18T03:27:42.501Z,32.33
2018-12-18T03:30:10.129Z,31.57
2018-12-18T03:32:38.688Z,29.13
2018-12-18T03:35:06.295Z,32.33
2018-12-18T03:37:34.025Z,33.13
2018-12-18T03:40:01.651Z,31.37
2018-12-18T03:42:29.343Z,32.80
2018-12-18T03:44:57.007Z,31.53
2018-12-18T03:47:24.688Z,31.30
2018-12-18T03:49:52.340Z,32.97
2018-12-18T03:52:20.010Z,33.70
2018-12-18T03:54:47.663Z,33.10
2018-12-18T03:57:15.328Z,31.50
2018-12-18T03:59:42.953Z,33.80
2018-12-18T04:02:10.648Z,33.70
2018-12-18T04:04:38.317Z,34.50
2018-12-18T04:07:05.923Z,33.57
2018-12-18T04:09:33.644Z,36.10
2018-12-18T04:12:06.974Z,32.37
2018-12-18T04:14:34.587Z,32.67
2018-12-18T04:17:02.271Z,32.37
2018-12-18T04:19:29.926Z,35.27
2018-12-18T04:21:57.592Z,35.57
2018-12-18T04:24:25.252Z,36.40
2018-12-18T04:26:52.918Z,32.87
2018-12-18T04:29:20.581Z,34.00
2018-12-18T04:31:48.240Z,35.30
2018-12-18T04:34:15.905Z,34.10
2018-12-18T04:36:43.573Z,37.33
2018-12-18T04:39:11.188Z,34.03
2018-12-18T04:41:39.234Z,35.93
2018-12-18T04:44:06.944Z,36.10
2018-12-18T04:46:34.627Z,35.97
2018-12-18T04:49:02.292Z,37.63
2018-12-18T04:51:29.953Z,37.80
2018-12-18T04:53:57.615Z,35.87
2018-12-18T04:56:25.280Z,34.80
2018-12-18T04:58:52.944Z,34.60
2018-12-18T05:01:20.604Z,36.10
2018-12-18T05:03:48.270Z,34.20
2018-12-18T05:06:15.863Z,37.60
2018-12-18T05:08:43.476Z,33.87
2018-12-18T05:11:11.160Z,33.80
2018-12-18T05:13:38.812Z,31.87
2018-12-18T05:16:06.569Z,30.20
2018-12-18T05:18:34.164Z,35.27
2018-12-18T05:21:01.810Z,32.10
2018-12-18T05:23:29.463Z,31.00
2018-12-18T05:25:57.128Z,34.03
2018-12-18T05:28:24.792Z,31.17
2018-12-18T05:30:52.461Z,32.83
2018-12-18T05:33:20.117Z,31.57
2018-12-18T05:35:47.785Z,28.87
2018-12-18T05:38:15.433Z,29.67
2018-12-18T05:40:43.106Z,31.23
2018-12-18T05:43:10.773Z,27.43
2018-12-18T05:45:38.435Z,30.20
2018-12-18T05:48:06.091Z,30.27
2018-12-18T05:50:33.755Z,27.20
2018-12-18T05:53:01.423Z,28.97
2018-12-18T05:55:29.088Z,31.47
2018-12-18T05:57:56.679Z,30.10
2018-12-18T06:00:24.307Z,31.30
2018-12-18T06:02:52.375Z,29.70
2018-12-18T06:05:20.048Z,28.27
2018-12-18T06:07:47.704Z,29.23
2018-12-18T06:10:15.368Z,28.60
2018-12-18T06:12:43.852Z,30.27
2018-12-18T06:15:11.486Z,30.70
2018-12-18T06:17:39.182Z,31.57
2018-12-18T06:20:06.948Z,33.60
2018-12-18T06:22:34.603Z,30.47
2018-12-18T06:25:02.210Z,31.97
2018-12-18T06:27:30.036Z,33.70
2018-12-18T06:29:57.691Z,29.83
2018-12-18T06:32:25.361Z,31.10
2018-12-18T06:34:52.960Z,33.77
2018-12-18T06:37:20.684Z,31.70
2018-12-18T06:39:48.344Z,27.83
2018-12-18T06:42:16.013Z,32.37
2018-12-18T06:44:43.690Z,29.73
2018-12-18T06:47:11.344Z,31.93
2018-12-18T06:49:39.000Z,29.00
2018-12-18T06:52:06.665Z,30.33
2018-12-18T06:54:34.257Z,28.93
2018-12-18T06:57:01.895Z,31.70
2018-12-18T06:59:29.556Z,32.57
2018-12-18T07:01:57.211Z,31.53
2018-12-18T07:04:24.876Z,31.77
2018-12-18T07:06:52.535Z,34.40
2018-12-18T07:09:20.201Z,33.20
2018-12-18T07:11:47.864Z,31.93
2018-12-18T07:14:15.528Z,30.73
2018-12-18T07:16:43.188Z,33.37
2018-12-18T07:19:10.855Z,32.43
2018-12-18T07:21:38.515Z,32.90
2018-12-18T07:24:06.279Z,30.40
2018-12-18T07:26:33.950Z,31.43
2018-12-18T07:29:01.594Z,33.30
2018-12-18T07:31:29.380Z,30.17
2018-12-18T07:33:57.035Z,31.23
2018-12-18T07:36:24.704Z,31.73
2018-12-18T07:38:52.296Z,29.87
2018-12-18T07:41:20.025Z,32.57
2018-12-18T07:43:47.688Z,31.03
2018-12-18T07:46:15.452Z,34.13
2018-12-18T07:48:43.124Z,31.03
2018-12-18T07:51:11.532Z,34.37
2018-12-18T07:53:39.160Z,34.10
2018-12-18T07:56:06.923Z,34.50
2018-12-18T07:58:34.583Z,32.83
2018-12-18T08:01:02.254Z,34.07
2018-12-18T08:03:30.017Z,36.00
2018-12-18T08:05:57.676Z,33.70
2018-12-18T08:08:25.338Z,32.40
2018-12-18T08:10:53.005Z,34.27
2018-12-18T08:13:20.660Z,32.00
2018-12-18T08:15:48.331Z,33.43
2018-12-18T08:18:15.988Z,35.00
2018-12-18T08:20:43.651Z,31.33
2018-12-18T08:23:11.317Z,33.37
2018-12-18T08:25:38.985Z,34.00
2018-12-18T08:28:06.648Z,32.87
2018-12-18T08:30:34.244Z,33.20
2018-12-18T08:33:01.953Z,32.37
2018-12-18T08:35:29.589Z,34.77
2018-12-18T08:37:57.204Z,32.47
2018-12-18T08:40:24.787Z,31.73
2018-12-18T08:42:52.400Z,29.00
2018-12-18T08:45:20.057Z,33.07
2018-12-18T08:47:47.740Z,30.90
2018-12-18T08:50:15.406Z,32.40
2018-12-18T08:52:43.064Z,35.13
2018-12-18T08:55:10.727Z,31.67
2018-12-18T08:57:38.392Z,32.80
2018-12-18T09:00:07.720Z,31.60
2018-12-18T09:02:35.354Z,31.07
2018-12-18T09:05:02.952Z,33.20
2018-12-18T09:07:30.680Z,31.90
2018-12-18T09:09:58.333Z,33.87
2018-12-18T09:12:26.008Z,33.77
2018-12-18T09:14:57.876Z,33.97
2018-12-18T09:17:31.039Z,32.97
2018-12-18T09:19:58.716Z,33.33
2018-12-18T09:22:26.384Z,32.90
2018-12-18T09:24:54.045Z,30.63
2018-12-18T09:27:21.712Z,31.20
2018-12-18T09:29:49.380Z,34.43
2018-12-18T09:32:17.038Z,31.17
2018-12-18T09:34:44.634Z,34.80
2018-12-18T09:37:12.256Z,35.40
2018-12-18T09:39:42.059Z,34.57
2018-12-18T09:42:15.457Z,32.20
2018-12-18T09:44:43.136Z,31.30
2018-12-18T09:47:10.728Z,35.17
2018-12-18T09:49:38.337Z,32.33
2018-12-18T09:52:06.020Z,33.67
2018-12-18T09:54:33.684Z,36.10
2018-12-18T09:57:01.344Z,37.87
2018-12-18T09:59:29.013Z,42.83
2018-12-18T10:01:56.673Z,43.83
2018-12-18T10:04:24.336Z,36.17
2018-12-18T10:06:52.000Z,35.27
2018-12-18T10:09:19.612Z,32.40
2018-12-18T10:11:47.222Z,32.73
2018-12-18T10:14:14.840Z,35.57
2018-12-18T10:16:42.544Z,33.37
2018-12-18T10:19:10.212Z,36.60
2018-12-18T10:21:37.902Z,33.10
2018-12-18T10:24:05.641Z,34.17
2018-12-18T10:26:33.300Z,31.47
2018-12-18T10:29:00.965Z,35.33
2018-12-18T10:31:28.614Z,32.00
2018-12-18T10:33:56.219Z,32.57
2018-12-18T10:36:23.848Z,31.50
2018-12-18T10:38:51.512Z,33.40
2018-12-18T10:41:19.176Z,33.30
2018-12-18T10:43:46.835Z,32.87
2018-12-18T10:46:14.495Z,31.97
2018-12-18T10:48:42.164Z,34.90
2018-12-18T10:51:09.824Z,34.97
2018-12-18T10:53:37.596Z,34.30
2018-12-18T10:56:05.256Z,33.80
2018-12-18T10:58:32.968Z,31.47
2018-12-18T11:04:04.050Z,34.90
2018-12-18T11:06:31.753Z,35.37
2018-12-18T11:08:59.414Z,34.40
2018-12-18T11:11:27.076Z,34.87
2018-12-18T11:13:54.695Z,37.27
2018-12-18T11:16:22.401Z,36.57
2018-12-18T11:18:50.060Z,35.00
2018-12-18T11:21:17.727Z,34.63
2018-12-18T11:23:45.387Z,32.90
2018-12-18T11:26:13.053Z,34.07
2018-12-18T11:28:40.712Z,34.80
2018-12-18T11:31:08.369Z,35.73
2018-12-18T11:33:36.040Z,35.67
2018-12-18T11:36:03.792Z,35.27
2018-12-18T11:38:31.390Z,36.53
2018-12-18T11:40:59.029Z,37.30
2018-12-18T11:43:26.677Z,37.23
2018-12-18T11:45:54.344Z,34.87
2018-12-18T11:48:22.011Z,35.10
2018-12-18T11:50:49.677Z,34.07
2018-12-18T11:53:17.271Z,34.07
2018-12-18T11:55:44.991Z,32.07
2018-12-18T11:58:12.667Z,36.13
2018-12-18T12:00:40.335Z,35.40
2018-12-18T12:03:07.995Z,34.03
2018-12-18T12:05:35.608Z,31.00
2018-12-18T12:08:03.196Z,33.10
2018-12-18T12:10:30.882Z,32.90
2018-12-18T12:12:58.487Z,30.00
2018-12-18T12:15:26.204Z,33.60
2018-12-18T12:17:53.851Z,33.37
2018-12-18T12:20:21.534Z,34.97
2018-12-18T12:22:49.192Z,30.83
2018-12-18T12:25:16.856Z,32.77
2018-12-18T12:27:50.209Z,33.30
2018-12-18T12:30:17.923Z,33.77
2018-12-18T12:32:45.511Z,32.07
2018-12-18T12:35:13.141Z,33.53
2018-12-18T12:37:40.808Z,34.90
2018-12-18T12:40:08.772Z,37.30
2018-12-18T12:42:36.531Z,34.43
2018-12-18T12:45:05.632Z,35.00
2018-12-18T12:47:33.224Z,34.20
2018-12-18T12:50:00.857Z,30.63
2018-12-18T12:52:28.523Z,34.30
2018-12-18T12:54:56.270Z,31.73
2018-12-18T12:57:24.050Z,32.83
2018-12-18T12:59:51.904Z,31.80
2018-12-18T13:02:19.525Z,32.90
2018-12-18T13:04:47.243Z,33.50
2018-12-18T13:07:14.899Z,34.60
2018-12-18T13:09:42.567Z,32.90
2018-12-18T13:12:10.230Z,28.43
2018-12-18T13:14:37.896Z,31.10
2018-12-18T13:17:05.573Z,39.40
2018-12-18T13:19:33.220Z,35.67
2018-12-18T13:22:00.880Z,33.67
2018-12-18T13:24:28.549Z,33.67
2018-12-18T13:26:56.209Z,33.00
2018-12-18T13:29:24.045Z,33.17
2018-12-18T13:31:51.809Z,35.77
2018-12-18T13:34:19.409Z,33.43
2018-12-18T13:36:47.072Z,32.77
2018-12-18T13:39:14.724Z,32.67
2018-12-18T13:41:42.477Z,32.60
2018-12-18T13:44:10.106Z,35.60
2018-12-18T13:46:37.728Z,34.67
2018-12-18T13:49:05.328Z,35.20
2018-12-18T13:51:33.040Z,38.20
2018-12-18T13:54:00.690Z,33.80
2018-12-18T13:56:28.374Z,35.00
2018-12-18T13:58:56.340Z,37.70
2018-12-18T14:01:23.956Z,39.93
2018-12-18T14:03:51.544Z,33.40
2018-12-18T14:06:19.227Z,32.73
2018-12-18T14:08:46.819Z,40.20
2018-12-18T14:11:14.431Z,30.53
2018-12-18T14:13:42.067Z,35.53
2018-12-18T14:16:09.748Z,33.27
2018-12-18T14:18:37.422Z,33.00
2018-12-18T14:21:05.049Z,30.60
2018-12-18T14:23:32.644Z,32.93
2018-12-18T14:26:00.332Z,35.93
2018-12-18T14:28:27.984Z,32.47
2018-12-18T14:30:55.748Z,30.00
2018-12-18T14:33:23.341Z,31.27
2018-12-18T14:35:50.996Z,29.83
2018-12-18T14:38:18.735Z,31.90
2018-12-18T14:40:46.324Z,32.60
2018-12-18T14:43:13.969Z,33.47
2018-12-18T14:45:41.729Z,32.33
2018-12-18T14:48:09.350Z,32.60
2018-12-18T14:50:36.940Z,32.00
2018-12-18T14:53:04.563Z,35.70
2018-12-18T14:55:32.173Z,33.13
2018-12-18T14:57:59.835Z,33.53
2018-12-18T15:00:27.496Z,34.63
2018-12-18T15:02:55.163Z,31.43
2018-12-18T15:05:23.269Z,34.70
2018-12-18T15:07:50.996Z,33.07
2018-12-18T15:10:18.664Z,33.03
2018-12-18T15:12:49.395Z,31.87
2018-12-18T15:15:17.065Z,29.47
2018-12-18T15:17:44.913Z,30.63
2018-12-18T15:20:12.592Z,32.80
2018-12-18T15:22:40.248Z,31.90
2018-12-18T15:25:07.916Z,32.47
2018-12-18T15:27:35.552Z,38.07
2018-12-18T15:30:03.333Z,33.10
2018-12-18T15:32:31.094Z,32.37
2018-12-18T15:34:58.772Z,31.57
2018-12-18T15:37:26.435Z,31.60
2018-12-18T15:39:54.104Z,31.20
2018-12-18T15:42:21.775Z,34.47
2018-12-18T15:44:49.423Z,36.80
2018-12-18T15:47:17.083Z,35.87
2018-12-18T15:49:44.680Z,36.10
2018-12-18T15:52:12.521Z,41.17
2018-12-18T15:54:40.118Z,36.37
2018-12-18T15:57:07.712Z,31.00
2018-12-18T15:59:35.399Z,34.67
2018-12-18T16:02:03.000Z,36.90
2018-12-18T16:04:30.713Z,33.50
2018-12-18T16:06:58.497Z,32.08
2018-12-18T16:09:26.157Z,34.27
2018-12-18T16:11:55.157Z,32.42
2018-12-18T16:14:23.016Z,30.73
2018-12-18T16:16:50.679Z,31.00
2018-12-18T16:19:18.440Z,32.50
2018-12-18T16:21:46.280Z,34.00
2018-12-18T16:24:13.977Z,33.37
2018-12-18T16:26:41.598Z,31.27
2018-12-18T16:29:09.211Z,35.17
2018-12-18T16:31:36.870Z,34.43
2018-12-18T16:34:04.742Z,34.95
2018-12-18T16:36:32.438Z,30.20
2018-12-18T16:39:00.165Z,30.13
2018-12-18T16:41:27.835Z,29.80
2018-12-18T16:43:55.489Z,29.27
2018-12-18T16:46:23.149Z,29.73
2018-12-18T16:48:50.808Z,29.77
2018-12-18T16:51:18.473Z,29.40
2018-12-18T16:53:46.131Z,33.90
2018-12-18T16:56:13.736Z,32.40
2018-12-18T16:58:41.618Z,31.17
2018-12-18T17:01:09.331Z,30.27
2018-12-18T17:03:37.199Z,30.47
2018-12-18T17:06:04.965Z,31.25
2018-12-18T17:08:32.629Z,26.47
2018-12-18T17:11:00.289Z,28.77
2018-12-18T17:13:28.052Z,26.35
2018-12-18T17:15:55.720Z,28.27
2018-12-18T17:18:23.376Z,29.60
2018-12-18T17:20:51.111Z,32.90
2018-12-18T17:23:18.908Z,33.80
2018-12-18T17:25:46.572Z,30.90
2018-12-18T17:28:14.654Z,30.50
2018-12-18T17:30:42.320Z,31.80
2018-12-18T17:33:09.963Z,33.00
2018-12-18T17:35:38.233Z,29.43
2018-12-18T17:38:05.918Z,31.43
2018-12-18T17:40:33.837Z,32.03
2018-12-18T17:43:01.544Z,31.50
2018-12-18T17:45:29.209Z,27.20
2018-12-18T17:47:56.867Z,28.57
2018-12-18T17:50:24.532Z,28.03
2018-12-18T17:52:52.196Z,31.60
2018-12-18T17:55:19.856Z,41.63
2018-12-18T17:57:47.520Z,33.20
2018-12-18T18:00:15.175Z,29.30
2018-12-18T18:02:42.840Z,29.10
2018-12-18T18:05:10.512Z,30.20
2018-12-18T18:07:42.879Z,28.30
2018-12-18T18:10:07.886Z,28.43
2018-12-18T18:12:35.476Z,31.00
2018-12-18T18:15:03.131Z,26.37
2018-12-18T18:17:30.774Z,131.27
2018-12-18T18:19:58.412Z,97.80
2018-12-18T18:22:26.023Z,85.40
2018-12-18T18:24:53.624Z,86.30
2018-12-18T18:27:21.316Z,85.67
2018-12-18T18:29:48.988Z,57.33
2018-12-18T18:32:16.654Z,59.17
2018-12-18T18:34:44.247Z,42.60
2018-12-18T18:37:12.057Z,41.93
2018-12-18T18:39:39.733Z,49.67
2018-12-18T18:42:07.404Z,73.27
2018-12-18T18:44:35.164Z,33.60
2018-12-18T18:47:02.776Z,36.43
2018-12-18T18:49:30.425Z,30.33
2018-12-18T18:51:58.152Z,32.50
2018-12-18T18:54:25.838Z,43.48
2018-12-18T18:56:53.476Z,34.90
2018-12-18T18:59:21.139Z,30.07
2018-12-18T19:01:48.796Z,33.87
2018-12-18T19:04:16.466Z,32.57
2018-12-18T19:06:44.320Z,28.90
2018-12-18T19:09:12.000Z,32.10
2018-12-18T19:11:40.356Z,32.30
2018-12-18T19:14:08.680Z,32.47
2018-12-18T19:16:36.341Z,30.67
2018-12-18T19:19:04.015Z,31.63
2018-12-18T19:21:31.641Z,33.70
2018-12-18T19:23:59.300Z,32.10
2018-12-18T19:26:26.967Z,33.00
2018-12-18T19:28:54.576Z,33.30
2018-12-18T19:31:22.216Z,30.33
2018-12-18T19:33:49.849Z,32.43
2018-12-18T19:36:17.435Z,34.57
2018-12-18T19:38:45.072Z,41.50
2018-12-18T19:41:12.717Z,45.63
2018-12-18T19:43:40.401Z,35.03
2018-12-18T19:46:08.064Z,34.50
2018-12-18T19:48:36.217Z,31.10
2018-12-18T19:51:03.900Z,31.00
2018-12-18T19:53:31.668Z,36.90
2018-12-18T19:55:59.332Z,33.50
2018-12-18T19:58:27.001Z,32.50
2018-12-18T20:00:54.669Z,31.63
2018-12-18T20:03:22.285Z,32.90
2018-12-18T20:05:49.980Z,32.00
2018-12-18T20:08:17.636Z,28.20
2018-12-18T20:10:45.308Z,34.00
2018-12-18T20:13:12.973Z,29.43
2018-12-18T20:15:40.564Z,30.50
2018-12-18T20:18:08.287Z,29.57
2018-12-18T20:20:35.952Z,30.20
2018-12-18T20:23:03.620Z,32.20
2018-12-18T20:25:31.293Z,32.80
2018-12-18T20:27:58.951Z,29.93
2018-12-18T20:30:26.563Z,28.73
2018-12-18T20:32:54.150Z,29.03
2018-12-18T20:35:21.761Z,29.23
2018-12-18T20:37:49.393Z,28.27
2018-12-18T20:40:17.003Z,27.40
2018-12-18T20:42:44.614Z,24.83
2018-12-18T20:45:12.380Z,35.63
2018-12-18T20:47:40.045Z,30.30
2018-12-18T20:50:07.803Z,28.33
2018-12-18T20:52:35.476Z,25.40
2018-12-18T20:55:03.251Z,26.80
2018-12-18T20:57:30.991Z,25.90
2018-12-18T20:59:58.617Z,27.03
2018-12-18T21:02:26.647Z,25.17
2018-12-18T21:04:54.331Z,26.50
2018-12-18T21:07:22.016Z,24.73
2018-12-18T21:09:49.625Z,26.87
2018-12-18T21:12:17.216Z,24.90
2018-12-18T21:14:44.824Z,20.60
2018-12-18T21:17:12.412Z,23.27
2018-12-18T21:19:40.021Z,23.97
2018-12-18T21:22:09.516Z,23.93
2018-12-18T21:24:37.131Z,23.60
2018-12-18T21:27:04.726Z,25.70
2018-12-18T21:29:32.563Z,22.43
2018-12-18T21:32:00.152Z,23.17
2018-12-18T21:34:27.739Z,23.50
2018-12-18T21:36:55.358Z,23.20
2018-12-18T21:39:22.956Z,23.43
2018-12-18T21:41:50.572Z,24.20
2018-12-18T21:44:18.156Z,20.80
2018-12-18T21:46:45.772Z,24.00
2018-12-18T21:49:13.359Z,22.90
2018-12-18T21:51:40.969Z,21.27
2018-12-18T21:54:08.556Z,23.60
2018-12-18T21:56:36.168Z,22.10
2018-12-18T21:59:03.856Z,23.17
2018-12-18T22:01:31.464Z,21.27
2018-12-18T22:03:59.056Z,24.50
2018-12-18T22:06:26.668Z,24.83
2018-12-18T22:08:54.260Z,22.43
2018-12-18T22:11:21.965Z,19.90
2018-12-18T22:13:49.554Z,22.10
2018-12-18T22:16:17.168Z,20.80
2018-12-18T22:18:44.783Z,21.43
2018-12-18T22:21:12.396Z,22.60
2018-12-18T22:23:40.652Z,19.50
2018-12-18T22:26:08.260Z,20.77
2018-12-18T22:28:35.853Z,22.13
2018-12-18T22:31:03.520Z,22.37
2018-12-18T22:33:31.184Z,22.37
2018-12-18T22:35:58.839Z,22.13
2018-12-18T22:38:26.513Z,21.70
2018-12-18T22:40:54.173Z,24.63
2018-12-18T22:43:21.832Z,24.47
2018-12-18T22:45:49.496Z,23.80
2018-12-18T22:48:17.113Z,22.80
2018-12-18T22:50:44.810Z,22.27
2018-12-18T22:53:12.488Z,21.87
2018-12-18T22:55:44.809Z,23.30
2018-12-18T22:58:09.860Z,24.57
2018-12-18T23:00:42.952Z,22.70
2018-12-18T23:03:10.607Z,21.33
2018-12-18T23:05:38.267Z,22.80
2018-12-18T23:08:05.888Z,23.50
2018-12-18T23:10:33.503Z,20.60
2018-12-18T23:13:01.169Z,20.27
2018-12-18T23:15:28.824Z,22.60
2018-12-18T23:17:56.490Z,23.07
2018-12-18T23:20:24.144Z,22.13
2018-12-18T23:22:51.816Z,23.80
2018-12-18T23:25:19.480Z,24.20
2018-12-18T23:27:47.145Z,22.60
2018-12-18T23:30:14.796Z,19.57
2018-12-18T23:32:42.465Z,24.20
2018-12-18T23:35:10.128Z,21.20
2018-12-18T23:37:37.792Z,21.70
2018-12-18T23:40:05.453Z,22.83
2018-12-18T23:42:33.121Z,21.43
2018-12-18T23:45:00.750Z,22.13
2018-12-18T23:47:28.340Z,20.97
2018-12-18T23:49:55.996Z,21.10
2018-12-18T23:52:23.632Z,22.10
2018-12-18T23:54:51.323Z,21.60
2018-12-18T23:57:18.992Z,20.67
2018-12-18T23:59:46.652Z,23.83
